Time;durP1;ratioP1;P1;durP2;ratioP2;P2;SDS_P1;SDS_P2;PMS_P1;PMS_P2;Temp;Humidity;BMP_temperature;BMP_pressure;BME280_temperature;BME280_humidity;BME280_pressure;Samples;Min_cycle;Max_cycle;Signal;HPM_P1;HPM_P2
2022/06/06 00:02:24;;;;;;;4.70;4.30;;;20.20;99.90;;;;;;4997119;28;20945;-66
2022/06/06 00:04:50;;;;;;;9.00;4.40;;;20.20;99.90;;;;;;5004610;28;20700;-66
2022/06/06 00:07:15;;;;;;;5.47;4.37;;;20.20;99.90;;;;;;5001025;28;20989;-66
2022/06/06 00:09:41;;;;;;;4.43;4.03;;;20.20;99.90;;;;;;5001920;28;20187;-66
2022/06/06 00:12:07;;;;;;;4.80;4.30;;;20.30;99.90;;;;;;4983646;28;20212;-66
2022/06/06 00:14:33;;;;;;;7.83;3.80;;;20.30;99.90;;;;;;5004660;28;20493;-66
2022/06/06 00:16:59;;;;;;;4.10;3.70;;;20.30;99.90;;;;;;5002187;28;20212;-66
2022/06/06 00:19:25;;;;;;;5.87;4.13;;;20.30;99.90;;;;;;5001393;28;20470;-66
2022/06/06 00:21:51;;;;;;;5.47;4.03;;;20.30;99.90;;;;;;4999891;28;20263;-64
2022/06/06 00:24:17;;;;;;;8.43;3.80;;;20.30;99.90;;;;;;4997464;28;20459;-65
2022/06/06 00:26:43;;;;;;;5.00;4.50;;;20.30;99.90;;;;;;4999870;28;20470;-65
2022/06/06 00:29:12;;;;;;;5.50;4.80;;;20.30;99.90;;;;;;5001987;28;20436;-64
2022/06/06 00:37:09;;;;;;;6.27;5.67;;;20.10;99.90;;;;;;5004875;28;20857;-64
2022/06/06 00:39:35;;;;;;;6.83;6.13;;;20.10;99.90;;;;;;5006457;28;20424;-65
2022/06/06 00:42:01;;;;;;;5.53;5.03;;;20.00;99.90;;;;;;5002553;28;20477;-65
2022/06/06 00:44:32;;;;;;;5.80;5.30;;;19.80;99.90;;;;;;5002995;28;20474;-65
2022/06/06 00:47:06;;;;;;;5.00;4.50;;;19.80;99.90;;;;;;5007132;28;20533;-64
2022/06/06 00:49:39;;;;;;;6.13;4.80;;;20.00;99.90;;;;;;5005366;28;20451;-64
2022/06/06 00:52:13;;;;;;;6.03;5.37;;;19.90;99.90;;;;;;5003627;28;20470;-65
2022/06/06 00:54:40;;;;;;;5.33;4.70;;;19.70;99.90;;;;;;5008354;28;20416;-64
2022/06/06 00:57:13;;;;;;;5.10;4.50;;;19.70;99.90;;;;;;5002249;28;20996;-65
2022/06/06 00:59:40;;;;;;;6.00;4.90;;;19.60;99.90;;;;;;5001968;28;20509;-63
2022/06/06 01:02:10;;;;;;;5.60;4.70;;;19.80;99.90;;;;;;5003601;28;20443;-66
2022/06/06 01:04:36;;;;;;;6.27;5.67;;;19.70;99.90;;;;;;5005423;28;20586;-65
2022/06/06 01:07:04;;;;;;;9.60;4.80;;;19.70;99.90;;;;;;4987778;28;21027;-64
2022/06/06 01:09:30;;;;;;;5.40;4.90;;;19.70;99.90;;;;;;5003427;28;21482;-65
2022/06/06 01:12:00;;;;;;;5.30;4.80;;;19.80;99.90;;;;;;5002477;28;20460;-64
2022/06/06 01:14:29;;;;;;;5.73;5.23;;;19.80;99.90;;;;;;5005072;28;20708;-65
2022/06/06 01:16:58;;;;;;;6.77;5.53;;;19.70;99.90;;;;;;5004533;28;20922;-65
2022/06/06 01:19:47;;;;;;;6.20;5.40;;;19.80;99.90;;;;;;5004058;28;20444;-65
2022/06/06 01:22:28;;;;;;;7.90;5.27;;;19.70;99.90;;;;;;5004367;28;20455;-65
2022/06/06 01:25:21;;;;;;;6.73;5.00;;;19.60;99.90;;;;;;5004883;28;20432;-64
2022/06/06 01:28:23;;;;;;;5.77;5.27;;;19.70;99.90;;;;;;5003463;28;20890;-64
2022/06/06 01:30:57;;;;;;;6.03;5.20;;;19.60;99.90;;;;;;4981946;28;20454;-64
2022/06/06 01:33:23;;;;;;;5.93;5.30;;;19.40;99.90;;;;;;4990732;28;21087;-64
2022/06/06 01:35:50;;;;;;;5.80;5.20;;;19.60;99.90;;;;;;5007211;28;20499;-64
2022/06/06 01:38:19;;;;;;;7.03;5.07;;;19.50;99.90;;;;;;5003118;28;20941;-64
2022/06/06 01:40:59;;;;;;;5.27;4.77;;;19.50;99.90;;;;;;5003015;28;20569;-64
2022/06/06 01:43:35;;;;;;;5.27;4.67;;;19.50;99.90;;;;;;5003124;28;20466;-64
2022/06/06 01:46:11;;;;;;;5.67;5.17;;;19.40;99.90;;;;;;4998984;28;20436;-64
2022/06/06 01:48:40;;;;;;;6.40;5.23;;;19.40;99.90;;;;;;4999809;28;20467;-64
2022/06/06 01:51:17;;;;;;;5.03;4.63;;;19.40;99.90;;;;;;5005836;28;20640;-64
2022/06/06 01:53:43;;;;;;;9.97;5.50;;;19.40;99.90;;;;;;5003348;28;20558;-64
2022/06/06 01:56:13;;;;;;;6.23;5.63;;;19.40;99.90;;;;;;5002971;28;20582;-64
2022/06/06 01:58:39;;;;;;;6.30;5.67;;;19.40;99.90;;;;;;5000842;28;20451;-64
2022/06/06 02:01:05;;;;;;;6.87;6.17;;;19.40;99.90;;;;;;5005962;28;20416;-64
2022/06/06 02:03:32;;;;;;;6.50;5.90;;;19.40;99.90;;;;;;5002373;28;20305;-64
2022/06/06 02:05:58;;;;;;;7.33;6.30;;;19.40;99.90;;;;;;5005684;28;20189;-64
2022/06/06 02:08:24;;;;;;;6.67;6.00;;;19.30;99.90;;;;;;5000945;28;20571;-64
2022/06/06 02:10:50;;;;;;;6.50;5.43;;;19.30;99.90;;;;;;5002306;28;20447;-64
2022/06/06 02:13:16;;;;;;;6.30;5.70;;;19.40;99.90;;;;;;5002021;28;20886;-65
2022/06/06 02:15:42;;;;;;;5.97;5.47;;;19.40;99.90;;;;;;5002473;28;20983;-64
2022/06/06 02:18:08;;;;;;;7.03;5.20;;;19.50;99.90;;;;;;5008795;28;20798;-64
2022/06/06 02:20:34;;;;;;;7.00;5.30;;;19.40;99.90;;;;;;4987518;28;20448;-64
2022/06/06 02:23:01;;;;;;;8.17;5.87;;;19.30;99.90;;;;;;5004300;28;20186;-64
2022/06/06 02:25:29;;;;;;;6.07;5.47;;;19.20;99.90;;;;;;5009701;28;20432;-64
2022/06/06 02:27:55;;;;;;;7.10;5.50;;;19.10;99.90;;;;;;5002151;28;20935;-64
2022/06/06 02:30:29;;;;;;;6.43;5.07;;;19.20;99.90;;;;;;5004831;28;20796;-64
2022/06/06 02:32:55;;;;;;;6.47;5.30;;;19.10;99.90;;;;;;5005988;28;20559;-64
2022/06/06 02:35:24;;;;;;;6.30;5.80;;;19.10;99.90;;;;;;5004340;28;20515;-64
2022/06/06 02:37:50;;;;;;;6.40;5.50;;;19.00;99.90;;;;;;5002789;28;20491;-64
2022/06/06 02:40:18;;;;;;;5.20;4.70;;;19.00;99.90;;;;;;5000067;28;20479;-65
2022/06/06 02:42:44;;;;;;;7.83;6.27;;;19.20;99.90;;;;;;4998905;28;20896;-65
2022/06/06 02:45:12;;;;;;;7.60;5.00;;;19.10;99.90;;;;;;5004085;28;20443;-65
2022/06/06 02:47:38;;;;;;;7.67;5.13;;;19.00;99.90;;;;;;5000043;28;20228;-64
2022/06/06 02:50:06;;;;;;;5.80;5.30;;;19.00;99.90;;;;;;5003863;28;20593;-64
2022/06/06 02:52:33;;;;;;;5.93;5.20;;;19.00;99.90;;;;;;4999619;28;20304;-64
2022/06/06 02:54:59;;;;;;;5.77;5.17;;;19.00;99.90;;;;;;4995200;28;20440;-64
2022/06/06 02:57:28;;;;;;;6.50;5.07;;;18.90;99.90;;;;;;4999021;28;20980;-64
2022/06/06 02:59:55;;;;;;;5.70;5.20;;;19.00;99.90;;;;;;4996899;28;20444;-65
2022/06/06 03:02:21;;;;;;;6.70;5.10;;;19.10;99.90;;;;;;4997325;28;20865;-65
2022/06/06 03:04:47;;;;;;;7.47;5.17;;;19.10;99.90;;;;;;4997423;28;20440;-64
2022/06/06 03:07:31;;;;;;;6.67;5.40;;;19.10;99.90;;;;;;5000373;28;20355;-65
2022/06/06 03:10:22;;;;;;;8.00;5.50;;;19.00;99.90;;;;;;4994130;28;20201;-64
2022/06/06 03:12:53;;;;;;;5.60;5.00;;;19.00;99.90;;;;;;4995560;28;21112;-65
2022/06/06 03:15:35;;;;;;;6.50;5.70;;;19.00;99.90;;;;;;5001263;28;20433;-65
2022/06/06 03:21:16;;;;;;;8.53;5.43;;;18.90;99.90;;;;;;5003184;28;20964;-65
2022/06/06 03:23:57;;;;;;;7.17;5.80;;;19.00;99.90;;;;;;5002205;28;20487;-65
2022/06/06 03:26:33;;;;;;;6.30;5.47;;;19.00;99.90;;;;;;4994643;28;20514;-65
2022/06/06 03:29:17;;;;;;;5.93;5.23;;;18.80;99.90;;;;;;5001384;28;20436;-65
2022/06/06 03:32:14;;;;;;;5.60;5.10;;;18.80;99.90;;;;;;4995688;28;20472;-65
2022/06/06 03:35:09;;;;;;;6.07;5.30;;;18.80;99.90;;;;;;4995112;28;20917;-65
2022/06/06 03:37:43;;;;;;;6.07;5.47;;;18.70;99.90;;;;;;4972745;28;20984;-65
2022/06/06 03:40:18;;;;;;;7.00;6.00;;;18.70;99.90;;;;;;4996691;28;20707;-65
2022/06/06 03:43:14;;;;;;;6.03;5.43;;;18.70;99.90;;;;;;4993991;28;20451;-65
2022/06/06 03:45:48;;;;;;;6.23;5.53;;;18.70;99.90;;;;;;4998315;28;20449;-65
2022/06/06 03:48:33;;;;;;;6.87;6.13;;;18.80;99.90;;;;;;4994808;28;20541;-65
2022/06/06 03:51:07;;;;;;;7.10;5.40;;;18.80;99.90;;;;;;4996697;28;20448;-65
2022/06/06 03:53:49;;;;;;;7.40;5.33;;;18.90;99.90;;;;;;4994474;28;20575;-65
2022/06/06 03:56:40;;;;;;;6.03;5.47;;;18.80;99.90;;;;;;4999974;28;20440;-63
2022/06/06 03:59:07;;;;;;;6.13;5.30;;;18.80;99.90;;;;;;4992361;28;20970;-65
2022/06/06 04:01:37;;;;;;;5.43;4.93;;;18.90;99.90;;;;;;4983273;28;20459;-64
2022/06/06 04:04:06;;;;;;;6.57;5.70;;;18.90;99.90;;;;;;4992939;28;20433;-65
2022/06/06 04:06:33;;;;;;;4.83;4.43;;;19.00;99.90;;;;;;4994529;28;20444;-64
2022/06/06 04:08:59;;;;;;;6.00;5.17;;;18.90;99.90;;;;;;4991926;28;20504;-64
2022/06/06 04:11:30;;;;;;;8.47;6.50;;;19.10;99.90;;;;;;4997949;28;21018;-63
2022/06/06 04:14:05;;;;;;;7.67;5.50;;;19.20;99.90;;;;;;4979883;28;20216;-65
2022/06/06 04:16:39;;;;;;;9.00;4.90;;;19.10;99.90;;;;;;4999094;28;20787;-65
2022/06/06 04:19:29;;;;;;;6.60;6.00;;;19.20;99.90;;;;;;4994572;28;20815;-65
2022/06/06 04:22:10;;;;;;;8.30;5.53;;;19.10;99.90;;;;;;4990593;28;20444;-64
2022/06/06 04:25:13;;;;;;;7.20;5.20;;;19.20;99.90;;;;;;4995830;28;20496;-65
2022/06/06 04:28:06;;;;;;;7.73;6.17;;;19.20;99.90;;;;;;4958841;28;20558;-64
2022/06/06 04:30:46;;;;;;;7.10;6.00;;;18.90;99.90;;;;;;4996535;28;20447;-66
2022/06/06 04:33:21;;;;;;;5.27;4.77;;;18.90;99.90;;;;;;4996155;28;20475;-66
2022/06/06 04:36:06;;;;;;;6.13;4.57;;;18.90;99.90;;;;;;4995008;28;20447;-66
2022/06/06 04:38:39;;;;;;;6.23;5.50;;;19.10;99.90;;;;;;4995984;28;20503;-65
2022/06/06 04:41:31;;;;;;;7.30;6.70;;;19.20;99.90;;;;;;4999152;28;20952;-65
2022/06/06 04:44:26;;;;;;;10.80;5.50;;;19.20;99.90;;;;;;4995848;28;20835;-65
2022/06/06 04:47:00;;;;;;;6.73;5.97;;;19.00;99.90;;;;;;4978376;28;20644;-65
2022/06/06 04:49:28;;;;;;;5.73;5.23;;;19.00;99.90;;;;;;4992359;28;20523;-65
2022/06/06 04:51:54;;;;;;;8.00;6.10;;;19.00;99.90;;;;;;4996097;28;20557;-65
2022/06/06 04:54:23;;;;;;;8.10;5.80;;;19.00;99.90;;;;;;4990215;28;20443;-65
2022/06/06 04:56:50;;;;;;;5.80;5.20;;;19.00;99.90;;;;;;4994015;28;20462;-65
2022/06/06 04:59:16;;;;;;;8.03;5.30;;;19.20;99.90;;;;;;4994748;28;20463;-65
2022/06/06 05:01:43;;;;;;;5.83;5.33;;;19.30;99.90;;;;;;4998889;28;20424;-65
2022/06/06 05:04:09;;;;;;;6.07;5.40;;;19.30;99.90;;;;;;4996136;28;20231;-64
2022/06/06 05:06:46;;;;;;;6.20;5.67;;;19.30;99.90;;;;;;4996450;28;20432;-65
2022/06/06 05:09:27;;;;;;;5.87;5.27;;;19.40;99.90;;;;;;4999065;28;20843;-64
2022/06/06 05:12:16;;;;;;;7.00;6.07;;;19.40;99.90;;;;;;4994565;28;20465;-64
2022/06/06 05:14:55;;;;;;;8.33;5.80;;;19.40;99.90;;;;;;4975103;28;20436;-64
2022/06/06 05:17:28;;;;;;;7.07;6.37;;;19.40;99.90;;;;;;4997722;28;20926;-64
2022/06/06 05:20:06;;;;;;;6.93;6.23;;;19.30;99.90;;;;;;5000165;28;20431;-65
2022/06/06 05:22:41;;;;;;;7.30;5.77;;;19.40;99.90;;;;;;5002253;28;20472;-65
2022/06/06 05:25:12;;;;;;;8.23;5.77;;;19.50;99.90;;;;;;5000627;28;20932;-65
2022/06/06 05:27:52;;;;;;;6.27;5.67;;;19.50;99.90;;;;;;5003392;28;20539;-65
2022/06/06 05:30:36;;;;;;;8.70;5.73;;;19.50;99.90;;;;;;5000037;28;20439;-65
2022/06/06 05:33:07;;;;;;;10.17;5.43;;;19.70;99.90;;;;;;5002474;28;20471;-65
2022/06/06 05:35:59;;;;;;;6.33;5.73;;;19.70;99.90;;;;;;5003534;28;20438;-65
2022/06/06 05:38:46;;;;;;;6.57;5.50;;;19.70;99.90;;;;;;4999918;28;20994;-64
2022/06/06 05:41:54;;;;;;;6.30;5.50;;;19.70;99.90;;;;;;5000026;28;20443;-64
2022/06/06 05:44:35;;;;;;;10.33;5.40;;;19.80;99.90;;;;;;5000665;28;20435;-64
2022/06/06 05:47:24;;;;;;;7.40;5.70;;;19.80;99.90;;;;;;4999895;28;21394;-64
2022/06/06 05:49:53;;;;;;;8.30;5.60;;;19.90;99.90;;;;;;5000955;28;20516;-64
2022/06/06 05:52:29;;;;;;;6.57;5.40;;;20.10;99.90;;;;;;4999616;28;20494;-64
2022/06/06 05:55:06;;;;;;;6.87;5.33;;;20.10;99.90;;;;;;5003269;28;20630;-64
2022/06/06 05:58:02;;;;;;;10.10;5.63;;;20.10;99.90;;;;;;4999792;28;20453;-64
2022/06/06 06:01:08;;;;;;;10.37;5.70;;;20.00;99.90;;;;;;4999968;28;20527;-65
2022/06/06 06:04:08;;;;;;;6.63;5.83;;;20.30;99.90;;;;;;5001373;28;20981;-65
2022/06/06 06:07:00;;;;;;;5.63;5.10;;;20.30;99.90;;;;;;4997039;28;20507;-65
2022/06/06 06:10:00;;;;;;;6.47;5.83;;;20.20;99.90;;;;;;5000557;28;20459;-65
2022/06/06 06:13:00;;;;;;;9.20;6.40;;;20.30;99.90;;;;;;4996099;28;20472;-64
2022/06/06 06:15:44;;;;;;;7.43;5.53;;;20.20;99.90;;;;;;4988947;28;20547;-64
2022/06/06 06:18:29;;;;;;;12.43;6.00;;;20.10;99.90;;;;;;4998326;28;20944;-63
2022/06/06 06:21:12;;;;;;;7.40;6.10;;;20.10;99.90;;;;;;4999273;28;20792;-63
2022/06/06 06:23:46;;;;;;;6.47;5.80;;;20.10;99.90;;;;;;4996492;28;20734;-64
2022/06/06 06:26:13;;;;;;;5.43;4.93;;;20.00;99.90;;;;;;4998104;28;20528;-64
2022/06/06 06:28:40;;;;;;;6.00;5.40;;;20.10;99.90;;;;;;4997451;28;20961;-65
2022/06/06 06:31:28;;;;;;;7.87;6.60;;;20.10;99.90;;;;;;4983853;28;20436;-64
2022/06/06 06:34:52;;;;;;;6.40;5.50;;;20.20;99.90;;;;;;4997757;28;20567;-64
2022/06/06 06:37:38;;;;;;;7.80;5.97;;;20.10;99.90;;;;;;4920866;29;20502;-65
2022/06/06 06:40:27;;;;;;;7.17;5.63;;;20.20;99.90;;;;;;4994922;28;20455;-64
2022/06/06 06:43:27;;;;;;;6.87;5.87;;;20.10;99.90;;;;;;4998612;28;20439;-64
2022/06/06 06:45:56;;;;;;;7.13;5.47;;;20.10;99.90;;;;;;4999293;28;20527;-64
2022/06/06 06:48:30;;;;;;;10.80;6.03;;;20.20;99.90;;;;;;5000023;28;20486;-64
2022/06/06 06:51:11;;;;;;;6.50;5.80;;;20.20;99.90;;;;;;4999343;28;20918;-64
2022/06/06 06:54:09;;;;;;;6.43;5.80;;;20.30;99.90;;;;;;5002065;28;20535;-66
2022/06/06 06:57:06;;;;;;;8.40;5.43;;;20.40;99.90;;;;;;5002192;28;20851;-63
2022/06/06 07:00:01;;;;;;;6.67;5.50;;;20.60;99.90;;;;;;5000537;28;20868;-65
2022/06/06 07:09:26;;;;;;;10.93;5.53;;;20.70;99.90;;;;;;4997929;28;20501;-65
2022/06/06 07:12:06;;;;;;;5.53;4.90;;;20.70;99.90;;;;;;4998489;28;20704;-64
2022/06/06 07:14:43;;;;;;;6.37;5.77;;;20.80;99.90;;;;;;5000440;28;20958;-65
2022/06/06 07:17:10;;;;;;;5.67;5.03;;;20.80;99.90;;;;;;4998914;28;20524;-65
2022/06/06 07:19:42;;;;;;;5.10;4.60;;;20.80;99.90;;;;;;4996550;28;20958;-64
2022/06/06 07:22:10;;;;;;;6.50;4.97;;;20.70;99.90;;;;;;4995857;28;20439;-65
2022/06/06 07:24:37;;;;;;;10.80;5.17;;;20.70;99.90;;;;;;4999834;28;20522;-64
2022/06/06 07:27:04;;;;;;;5.37;4.30;;;20.80;99.90;;;;;;4998368;28;21189;-64
2022/06/06 07:29:29;;;;;;;4.93;4.40;;;20.80;99.90;;;;;;4996687;28;20435;-64
2022/06/06 07:32:13;;;;;;;5.67;5.13;;;20.90;99.90;;;;;;4998544;28;20959;-64
2022/06/06 07:35:06;;;;;;;5.20;4.70;;;20.80;99.90;;;;;;4996962;28;20869;-64
2022/06/06 07:37:31;;;;;;;8.73;4.83;;;20.80;99.90;;;;;;4994534;28;20938;-64
2022/06/06 07:40:24;;;;;;;5.57;5.07;;;20.70;99.90;;;;;;4996948;28;20514;-64
2022/06/06 07:43:16;;;;;;;5.23;4.73;;;20.70;99.90;;;;;;4998775;28;20190;-63
2022/06/06 07:45:45;;;;;;;5.37;4.87;;;20.70;99.90;;;;;;4997725;28;20432;-65
2022/06/06 07:48:43;;;;;;;5.30;4.60;;;20.70;99.90;;;;;;4998005;28;20476;-65
2022/06/06 07:51:24;;;;;;;5.63;5.10;;;20.60;99.90;;;;;;4971365;28;20457;-64
2022/06/06 07:54:13;;;;;;;6.63;5.70;;;20.70;99.90;;;;;;4997292;28;20470;-64
2022/06/06 07:56:39;;;;;;;5.40;4.90;;;20.60;99.90;;;;;;4999235;28;20505;-65
2022/06/06 07:59:11;;;;;;;5.30;4.80;;;20.50;99.90;;;;;;4998022;28;20466;-64
2022/06/06 08:01:57;;;;;;;5.13;4.30;;;20.50;99.90;;;;;;4998733;28;20185;-64
2022/06/06 08:04:36;;;;;;;5.13;4.63;;;20.60;99.90;;;;;;5000360;28;20510;-64
2022/06/06 08:07:27;;;;;;;10.17;4.47;;;20.60;99.90;;;;;;4993668;28;20829;-63
2022/06/06 08:10:20;;;;;;;5.87;5.30;;;20.60;99.90;;;;;;5002489;28;20880;-62
2022/06/06 08:12:57;;;;;;;6.20;4.43;;;20.70;99.90;;;;;;4996090;28;20479;-64
2022/06/06 08:15:30;;;;;;;4.67;4.27;;;20.80;99.90;;;;;;4995513;28;20527;-65
2022/06/06 08:18:18;;;;;;;5.13;4.40;;;20.80;99.90;;;;;;4992959;28;20961;-65
2022/06/06 08:20:50;;;;;;;5.97;4.93;;;20.90;99.90;;;;;;4998050;28;20439;-64
2022/06/06 08:23:17;;;;;;;4.60;4.17;;;20.90;99.90;;;;;;4997317;28;20502;-64
2022/06/06 08:25:46;;;;;;;5.50;4.37;;;21.00;99.90;;;;;;4998886;28;20432;-63
2022/06/06 08:28:14;;;;;;;4.80;4.30;;;21.00;99.90;;;;;;4997142;28;20485;-64
2022/06/06 08:30:43;;;;;;;6.17;4.67;;;21.10;99.90;;;;;;5000412;28;20429;-62
2022/06/06 08:33:08;;;;;;;4.90;4.40;;;21.10;99.90;;;;;;5000734;28;20460;-62
2022/06/06 08:35:48;;;;;;;4.30;3.90;;;21.20;99.90;;;;;;4996830;28;20436;-62
2022/06/06 08:38:27;;;;;;;4.40;4.00;;;21.30;99.90;;;;;;4998651;28;20215;-62
2022/06/06 08:41:20;;;;;;;3.80;3.50;;;21.30;99.90;;;;;;5000440;28;20427;-63
2022/06/06 08:44:12;;;;;;;4.87;4.20;;;21.40;99.90;;;;;;4998731;28;20554;-63
2022/06/06 08:47:01;;;;;;;7.00;4.10;;;21.50;99.90;;;;;;4999659;28;20465;-62
2022/06/06 08:53:23;;;;;;;4.30;3.67;;;21.70;99.90;;;;;;4998700;28;20597;-63
2022/06/06 08:55:55;;;;;;;5.97;3.57;;;21.80;99.90;;;;;;5004028;28;20443;-64
2022/06/06 08:58:48;;;;;;;7.17;3.73;;;21.80;99.90;;;;;;5002509;28;20547;-64
2022/06/06 09:01:27;;;;;;;4.67;3.90;;;22.00;99.90;;;;;;5002992;28;20456;-62
2022/06/06 09:04:21;;;;;;;6.13;3.77;;;22.10;99.90;;;;;;5008156;28;20454;-64
2022/06/06 09:07:26;;;;;;;5.33;3.67;;;22.10;99.90;;;;;;4992101;28;20586;-65
2022/06/06 09:10:30;;;;;;;3.30;3.00;;;22.10;99.90;;;;;;5001111;28;20482;-65
2022/06/06 09:13:34;;;;;;;4.90;3.57;;;22.10;99.90;;;;;;5000709;28;20463;-65
2022/06/06 09:16:33;;;;;;;5.23;3.83;;;22.20;99.90;;;;;;4998441;28;20472;-65
2022/06/06 09:19:11;;;;;;;4.03;3.70;;;22.10;99.90;;;;;;5000521;28;20757;-64
2022/06/06 09:22:15;;;;;;;3.90;3.50;;;22.30;99.90;;;;;;4994889;28;20448;-64
2022/06/06 09:24:47;;;;;;;5.63;4.00;;;22.40;99.90;;;;;;5000152;28;20742;-64
2022/06/06 09:28:11;;;;;;;5.63;4.03;;;22.70;99.90;;;;;;4996951;28;20997;-63
2022/06/06 09:31:11;;;;;;;4.10;3.80;;;22.80;99.90;;;;;;4977578;28;20447;-63
2022/06/06 09:34:10;;;;;;;7.40;3.53;;;22.80;99.90;;;;;;4996457;28;20472;-62
2022/06/06 09:37:03;;;;;;;4.50;2.97;;;22.80;99.90;;;;;;4996253;28;20515;-63
2022/06/06 09:39:32;;;;;;;5.03;3.53;;;22.70;99.90;;;;;;4999182;28;20436;-63
2022/06/06 09:42:06;;;;;;;4.00;3.20;;;22.60;99.90;;;;;;4995424;28;20467;-63
2022/06/06 09:44:54;;;;;;;3.27;2.90;;;22.60;99.90;;;;;;4988907;28;20446;-63
2022/06/06 09:47:55;;;;;;;4.27;3.87;;;22.50;99.90;;;;;;4980034;28;20514;-63
2022/06/06 09:50:44;;;;;;;6.27;4.70;;;22.50;99.90;;;;;;4995490;28;20480;-63
2022/06/06 09:53:16;;;;;;;7.43;4.40;;;22.50;99.90;;;;;;4995335;28;20553;-63
2022/06/06 09:59:03;;;;;;;5.30;4.40;;;21.80;99.90;;;;;;4999242;28;20903;-64
2022/06/06 10:02:06;;;;;;;5.83;4.60;;;21.60;99.90;;;;;;5000806;28;20565;-64
2022/06/06 10:05:23;;;;;;;7.80;4.30;;;21.60;99.90;;;;;;4993730;28;20930;-63
2022/06/06 10:08:16;;;;;;;7.63;4.40;;;21.30;99.90;;;;;;4959936;28;20465;-63
2022/06/06 10:11:19;;;;;;;5.17;4.07;;;21.30;99.90;;;;;;4960223;28;20553;-64
2022/06/06 10:14:05;;;;;;;6.93;4.73;;;21.20;99.90;;;;;;4993980;28;20467;-64
2022/06/06 10:16:55;;;;;;;5.00;3.93;;;21.10;99.90;;;;;;4998822;28;20444;-64
2022/06/06 10:19:37;;;;;;;5.10;4.40;;;20.90;99.90;;;;;;4994759;28;20455;-64
2022/06/06 10:22:42;;;;;;;4.97;4.37;;;20.90;99.90;;;;;;4997199;28;20980;-64
2022/06/06 10:25:44;;;;;;;5.60;4.10;;;21.00;99.90;;;;;;4972364;28;20455;-64
2022/06/06 10:28:40;;;;;;;5.83;4.60;;;21.00;99.90;;;;;;5001521;28;20555;-64
2022/06/06 10:31:36;;;;;;;5.90;3.90;;;21.00;99.90;;;;;;4995020;28;20452;-63
2022/06/06 10:34:16;;;;;;;6.43;4.40;;;21.20;99.90;;;;;;4998731;28;20505;-65
2022/06/06 10:36:51;;;;;;;7.50;5.30;;;21.30;99.90;;;;;;4997751;28;21025;-64
2022/06/06 10:39:57;;;;;;;5.43;4.80;;;21.30;99.90;;;;;;4981126;28;20493;-64
2022/06/06 10:43:04;;;;;;;5.30;4.80;;;21.40;99.90;;;;;;4998921;28;20535;-63
2022/06/06 10:45:50;;;;;;;5.70;5.20;;;21.60;99.90;;;;;;4966645;28;20448;-64
2022/06/06 10:48:30;;;;;;;5.37;4.87;;;21.60;99.90;;;;;;4994996;28;20514;-64
2022/06/06 10:54:05;;;;;;;6.00;4.50;;;22.10;99.90;;;;;;4993870;28;20479;-63
2022/06/06 10:56:34;;;;;;;4.70;3.93;;;22.30;99.90;;;;;;4997546;28;20528;-64
2022/06/06 10:59:24;;;;;;;5.27;4.47;;;22.40;99.90;;;;;;4995205;28;20495;-64
2022/06/06 11:02:05;;;;;;;4.00;3.60;;;22.40;99.90;;;;;;4996439;28;20440;-63
2022/06/06 11:05:04;;;;;;;4.97;4.30;;;22.40;99.90;;;;;;4998212;28;20436;-65
2022/06/06 11:07:43;;;;;;;4.00;3.67;;;22.50;99.90;;;;;;4995955;28;20585;-65
2022/06/06 11:10:45;;;;;;;4.20;3.80;;;22.40;99.90;;;;;;4996780;28;20435;-64
2022/06/06 11:13:47;;;;;;;10.20;3.97;;;22.40;99.90;;;;;;4997805;28;20821;-63
2022/06/06 11:16:58;;;;;;;4.30;3.90;;;22.30;99.90;;;;;;4995549;28;21327;-62
2022/06/06 11:19:36;;;;;;;5.73;3.83;;;22.40;99.90;;;;;;4995627;28;21017;-65
2022/06/06 11:22:27;;;;;;;6.47;3.83;;;22.40;99.90;;;;;;4996164;28;20841;-66
2022/06/06 11:25:07;;;;;;;6.20;3.77;;;22.40;99.90;;;;;;4971149;28;20479;-65
2022/06/06 11:27:36;;;;;;;4.07;3.67;;;22.50;99.90;;;;;;4999036;28;20957;-65
2022/06/06 11:30:37;;;;;;;3.63;3.33;;;22.70;99.90;;;;;;4998303;28;20462;-64
2022/06/06 11:33:40;;;;;;;3.90;3.47;;;23.00;99.90;;;;;;4996723;28;20967;-64
2022/06/06 11:36:38;;;;;;;6.40;3.60;;;23.10;99.90;;;;;;4997244;28;21316;-65
2022/06/06 11:39:32;;;;;;;4.50;4.10;;;23.20;99.90;;;;;;4993772;28;20476;-64
2022/06/06 11:42:05;;;;;;;4.90;3.83;;;23.40;99.90;;;;;;4998248;28;20494;-65
2022/06/06 11:45:03;;;;;;;4.70;3.30;;;23.70;99.90;;;;;;4993979;28;20475;-63
2022/06/06 11:48:04;;;;;;;3.80;3.30;;;23.50;99.90;;;;;;4974158;28;20562;-64
2022/06/06 11:50:51;;;;;;;4.20;3.90;;;23.70;99.90;;;;;;4975402;28;20492;-64
2022/06/06 11:53:32;;;;;;;7.00;3.60;;;23.80;99.90;;;;;;4996975;28;20552;-64
2022/06/06 11:56:18;;;;;;;6.73;4.03;;;24.10;99.90;;;;;;4980964;28;20439;-64
2022/06/06 11:59:11;;;;;;;5.07;3.70;;;24.00;99.90;;;;;;4999240;28;20524;-64
2022/06/06 12:02:01;;;;;;;4.70;3.80;;;24.50;99.90;;;;;;4998492;28;20439;-64
2022/06/06 12:04:37;;;;;;;3.97;3.60;;;24.40;99.90;;;;;;5000331;28;20440;-64
2022/06/06 12:07:02;;;;;;;5.13;3.50;;;24.20;99.90;;;;;;4998903;28;20550;-64
2022/06/06 12:09:55;;;;;;;3.80;3.30;;;24.00;99.90;;;;;;5004023;28;20527;-65
2022/06/06 12:12:56;;;;;;;4.20;3.83;;;24.00;99.90;;;;;;5000908;28;20209;-62
2022/06/06 12:15:40;;;;;;;6.10;4.03;;;23.80;99.90;;;;;;4969886;28;20466;-63
2022/06/06 12:18:14;;;;;;;4.40;4.00;;;23.50;99.90;;;;;;5003951;28;20825;-63
2022/06/06 12:21:12;;;;;;;4.20;3.80;;;23.30;99.90;;;;;;4999412;28;20439;-62
2022/06/06 12:24:10;;;;;;;4.97;3.70;;;23.20;99.90;;;;;;4998997;28;20450;-63
2022/06/06 12:26:48;;;;;;;4.87;3.83;;;23.10;99.90;;;;;;4999389;28;20992;-63
2022/06/06 12:29:19;;;;;;;3.30;3.10;;;23.10;99.90;;;;;;5000952;28;20892;-65
2022/06/06 12:32:09;;;;;;;4.33;3.37;;;23.20;99.90;;;;;;5002302;28;20525;-63
2022/06/06 12:34:43;;;;;;;4.43;3.77;;;23.10;99.90;;;;;;5005726;28;20546;-64
2022/06/06 12:37:53;;;;;;;7.33;3.60;;;23.00;99.90;;;;;;5006427;28;20841;-64
2022/06/06 12:40:27;;;;;;;4.53;3.80;;;23.00;99.90;;;;;;4945329;28;20478;-62
2022/06/06 12:43:18;;;;;;;4.97;3.73;;;22.90;99.90;;;;;;4947414;28;20442;-62
2022/06/06 12:46:14;;;;;;;4.47;3.87;;;22.90;99.90;;;;;;4988015;28;20475;-63
2022/06/06 12:49:10;;;;;;;4.57;4.17;;;22.80;99.90;;;;;;5000539;28;20480;-64
2022/06/06 12:52:00;;;;;;;4.07;3.40;;;22.70;99.90;;;;;;5005673;28;20452;-64
2022/06/06 12:55:26;;;;;;;6.50;3.40;;;22.60;99.90;;;;;;5001988;28;20498;-63
2022/06/06 12:57:26;;;;;;;7.93;4.40;;;22.60;99.90;;;;;;5001735;28;20485;-64
2022/06/06 13:00:01;;;;;;;6.33;5.00;;;22.80;99.90;;;;;;5005776;28;20439;-63
2022/06/06 13:02:47;;;;;;;4.73;3.63;;;22.90;99.90;;;;;;5008058;28;20540;-63
2022/06/06 13:05:40;;;;;;;4.70;4.20;;;22.90;99.90;;;;;;5003480;28;20447;-64
2022/06/06 13:08:25;;;;;;;4.03;3.63;;;23.00;99.90;;;;;;5005160;28;20478;-64
2022/06/06 13:10:56;;;;;;;5.17;3.93;;;23.10;99.90;;;;;;5007919;28;21039;-64
2022/06/06 13:13:34;;;;;;;4.27;3.87;;;23.20;99.90;;;;;;5005124;28;20574;-64
2022/06/06 13:16:20;;;;;;;3.90;3.50;;;23.20;99.90;;;;;;5003785;28;20427;-64
2022/06/06 13:19:05;;;;;;;5.20;3.90;;;23.20;99.90;;;;;;5003839;28;20835;-64
2022/06/06 13:21:44;;;;;;;4.83;4.30;;;23.20;99.90;;;;;;5002027;28;20805;-64
2022/06/06 13:24:22;;;;;;;4.30;3.70;;;23.20;99.90;;;;;;5005410;28;20427;-64
2022/06/06 13:26:52;;;;;;;4.87;3.60;;;23.20;99.90;;;;;;5005613;28;20454;-64
2022/06/06 13:29:25;;;;;;;5.07;4.57;;;23.20;99.90;;;;;;5008103;28;20443;-64
2022/06/06 13:32:13;;;;;;;4.13;3.77;;;23.20;99.90;;;;;;5005443;28;20440;-64
2022/06/06 13:34:57;;;;;;;5.23;3.67;;;23.30;99.90;;;;;;5001122;28;20734;-64
2022/06/06 13:37:46;;;;;;;4.23;3.60;;;23.10;99.90;;;;;;5006683;28;20813;-64
2022/06/06 13:40:21;;;;;;;4.50;3.77;;;23.10;99.90;;;;;;5000021;28;20420;-64
2022/06/06 13:42:59;;;;;;;4.30;3.77;;;23.00;99.90;;;;;;5005518;28;20521;-63
2022/06/06 13:45:47;;;;;;;4.00;3.67;;;22.90;99.90;;;;;;5003131;28;20805;-63
2022/06/06 13:48:57;;;;;;;5.13;4.20;;;22.90;99.90;;;;;;5006384;28;20474;-63
2022/06/06 13:51:38;;;;;;;4.07;3.30;;;22.90;99.90;;;;;;5005378;28;20440;-63
2022/06/06 13:54:07;;;;;;;3.37;3.07;;;23.10;99.90;;;;;;5004472;28;20472;-63
2022/06/06 13:56:41;;;;;;;3.80;3.50;;;23.40;99.90;;;;;;5007204;28;20502;-64
2022/06/06 13:59:29;;;;;;;7.87;4.83;;;23.70;99.90;;;;;;5005032;28;20978;-64
2022/06/06 14:01:57;;;;;;;4.27;3.87;;;23.90;99.90;;;;;;5003951;28;20436;-64
2022/06/06 14:04:32;;;;;;;3.33;3.00;;;24.00;99.90;;;;;;5003168;28;20459;-64
2022/06/06 14:07:30;;;;;;;3.23;2.93;;;24.20;99.90;;;;;;5003649;28;20517;-64
2022/06/06 14:10:07;;;;;;;7.20;3.37;;;24.30;99.90;;;;;;4995549;28;20443;-66
2022/06/06 14:12:57;;;;;;;3.80;2.87;;;24.40;99.90;;;;;;5002158;28;20570;-65
2022/06/06 14:15:24;;;;;;;4.10;3.77;;;24.30;99.90;;;;;;4999944;28;20432;-65
2022/06/06 14:18:00;;;;;;;5.23;4.10;;;24.30;99.90;;;;;;5005016;28;20450;-66
2022/06/06 14:20:43;;;;;;;3.13;2.90;;;24.30;99.90;;;;;;4991606;28;20555;-66